createdAt,value
2022-12-11T00:00:09.280Z,8.23
2022-12-11T00:02:35.881Z,9.93
2022-12-11T00:05:02.506Z,12.77
2022-12-11T00:07:29.115Z,8.63
2022-12-11T00:09:55.771Z,11.03
2022-12-11T00:12:22.527Z,12.40
2022-12-11T00:14:49.151Z,24.87
2022-12-11T00:17:15.768Z,9.30
2022-12-11T00:19:42.358Z,15.97
2022-12-11T00:22:09.019Z,14.30
2022-12-11T00:24:35.596Z,13.63
2022-12-11T00:27:02.315Z,13.20
2022-12-11T00:29:28.915Z,12.00
2022-12-11T00:31:55.624Z,14.20
2022-12-11T00:34:22.375Z,15.23
2022-12-11T00:36:49.217Z,12.83
2022-12-11T00:39:15.959Z,11.70
2022-12-11T00:41:42.597Z,34.93
2022-12-11T00:44:09.340Z,15.33
2022-12-11T00:46:36.048Z,11.27
2022-12-11T00:49:02.692Z,12.20
2022-12-11T00:51:29.340Z,14.00
2022-12-11T00:53:56.175Z,10.83
2022-12-11T00:56:24.455Z,10.03
2022-12-11T00:58:51.331Z,11.63
2022-12-11T01:01:22.456Z,12.23
2022-12-11T01:03:49.512Z,13.27
2022-12-11T01:06:21.967Z,12.30
2022-12-11T01:09:09.676Z,12.30
2022-12-11T01:11:36.704Z,13.87
2022-12-11T01:14:03.876Z,12.13
2022-12-11T01:16:30.549Z,12.70
2022-12-11T01:18:57.618Z,14.07
2022-12-11T01:21:24.302Z,14.90
2022-12-11T01:23:51.673Z,13.30
2022-12-11T01:26:18.684Z,11.37
2022-12-11T01:28:45.563Z,11.13
2022-12-11T01:31:14.045Z,14.40
2022-12-11T01:33:41.056Z,10.80
2022-12-11T01:36:13.934Z,12.53
2022-12-11T01:38:40.983Z,11.03
2022-12-11T01:41:08.625Z,12.03
2022-12-11T01:43:35.789Z,13.90
2022-12-11T01:46:02.524Z,11.17
2022-12-11T01:48:31.503Z,10.23
2022-12-11T01:51:04.924Z,11.10
2022-12-11T01:53:34.872Z,13.17
2022-12-11T01:56:03.032Z,15.30
2022-12-11T01:58:34.992Z,14.50
2022-12-11T02:01:02.465Z,16.17
2022-12-11T02:03:29.177Z,13.70
2022-12-11T02:06:00.401Z,14.40
2022-12-11T02:08:27.217Z,12.07
2022-12-11T02:11:10.800Z,14.03
2022-12-11T02:13:57.347Z,24.77
2022-12-11T02:16:54.633Z,11.93
2022-12-11T02:19:59.244Z,14.00
2022-12-11T02:22:29.101Z,13.60
2022-12-11T02:25:05.308Z,12.43
2022-12-11T02:27:41.754Z,14.73
2022-12-11T02:30:10.802Z,16.40
2022-12-11T02:32:39.812Z,15.20
2022-12-11T02:35:18.883Z,11.13
2022-12-11T02:37:48.546Z,14.93
2022-12-11T02:40:21.973Z,17.83
2022-12-11T02:42:50.506Z,19.97
2022-12-11T02:45:19.245Z,16.00
2022-12-11T02:47:48.799Z,11.90
2022-12-11T02:50:19.516Z,16.40
2022-12-11T02:52:49.570Z,23.70
2022-12-11T02:55:17.038Z,13.13
2022-12-11T02:58:02.304Z,14.40
2022-12-11T03:00:28.961Z,17.30
2022-12-11T03:02:56.604Z,15.40
2022-12-11T03:05:23.403Z,16.07
2022-12-11T03:07:50.492Z,12.47
2022-12-11T03:10:18.984Z,10.50
2022-12-11T03:12:53.391Z,13.37
2022-12-11T03:15:23.888Z,11.17
2022-12-11T03:18:11.998Z,14.40
2022-12-11T03:20:45.529Z,13.30
2022-12-11T03:23:39.376Z,11.23
2022-12-11T03:26:11.396Z,15.50
2022-12-11T03:28:46.997Z,11.30
2022-12-11T03:31:21.952Z,14.03
2022-12-11T03:33:53.512Z,12.97
2022-12-11T03:36:27.965Z,12.43
2022-12-11T03:39:07.713Z,13.17
2022-12-11T03:41:37.672Z,12.30
2022-12-11T03:44:04.704Z,13.13
2022-12-11T03:46:36.578Z,11.13
2022-12-11T03:49:09.112Z,14.10
2022-12-11T03:51:36.477Z,14.60
2022-12-11T03:54:03.396Z,12.20
2022-12-11T03:56:34.141Z,12.67
2022-12-11T03:59:00.749Z,15.70
2022-12-11T04:01:27.933Z,13.53
2022-12-11T04:03:54.621Z,15.67
2022-12-11T04:06:21.244Z,12.70
2022-12-11T04:08:47.873Z,14.93
2022-12-11T04:11:33.077Z,14.47
2022-12-11T04:14:18.498Z,16.30
2022-12-11T04:16:45.140Z,13.30
2022-12-11T04:19:30.433Z,15.73
2022-12-11T04:22:15.849Z,13.63
2022-12-11T04:24:42.733Z,16.47
2022-12-11T04:27:09.605Z,18.50
2022-12-11T04:29:36.326Z,13.83
2022-12-11T04:32:02.978Z,15.37
2022-12-11T04:34:30.002Z,21.67
2022-12-11T04:36:56.601Z,16.50
2022-12-11T04:39:23.186Z,18.40
2022-12-11T04:41:49.825Z,16.07
2022-12-11T04:44:16.605Z,15.67
2022-12-11T04:46:43.236Z,13.17
2022-12-11T04:49:10.111Z,17.57
2022-12-11T04:51:36.746Z,19.83
2022-12-11T04:54:03.394Z,18.03
2022-12-11T04:56:29.988Z,18.00
2022-12-11T04:58:56.610Z,17.30
2022-12-11T05:01:23.574Z,19.63
2022-12-11T05:03:51.443Z,14.60
2022-12-11T05:06:18.070Z,16.27
2022-12-11T05:08:45.503Z,20.70
2022-12-11T05:11:14.780Z,16.40
2022-12-11T05:13:41.824Z,19.70
2022-12-11T05:16:09.941Z,20.80
2022-12-11T05:18:36.706Z,18.27
2022-12-11T05:21:06.516Z,19.43
2022-12-11T05:23:33.491Z,13.93
2022-12-11T05:26:07.022Z,17.67
2022-12-11T05:28:36.432Z,18.30
2022-12-11T05:31:07.124Z,14.50
2022-12-11T05:33:34.410Z,19.13
2022-12-11T05:36:01.357Z,21.40
2022-12-11T05:38:27.986Z,18.37
2022-12-11T05:40:59.509Z,23.90
2022-12-11T05:43:28.135Z,18.90
2022-12-11T05:45:55.025Z,15.70
2022-12-11T05:48:22.212Z,16.43
2022-12-11T05:50:59.984Z,19.90
2022-12-11T05:53:27.299Z,17.17
2022-12-11T05:55:54.058Z,12.60
2022-12-11T05:58:21.310Z,14.80
2022-12-11T06:00:48.291Z,20.23
2022-12-11T06:03:14.962Z,14.80
2022-12-11T06:05:42.537Z,14.53
2022-12-11T06:08:09.479Z,17.43
2022-12-11T06:10:36.196Z,16.20
2022-12-11T06:13:03.124Z,15.50
2022-12-11T06:15:29.857Z,15.07
2022-12-11T06:17:56.477Z,22.20
2022-12-11T06:20:23.066Z,19.60
2022-12-11T06:22:49.662Z,16.70
2022-12-11T06:25:16.295Z,14.30
2022-12-11T06:27:42.927Z,15.50
2022-12-11T06:30:10.098Z,14.00
2022-12-11T06:32:36.822Z,17.17
2022-12-11T06:35:03.579Z,13.47
2022-12-11T06:37:30.197Z,14.80
2022-12-11T06:39:56.772Z,16.67
2022-12-11T06:42:23.379Z,16.17
2022-12-11T06:44:49.946Z,18.57
2022-12-11T06:47:16.524Z,17.87
2022-12-11T06:49:43.114Z,12.20
2022-12-11T06:52:12.502Z,19.10
2022-12-11T06:54:43.243Z,21.50
2022-12-11T06:57:10.267Z,16.60
2022-12-11T06:59:37.118Z,18.67
2022-12-11T07:02:04.479Z,17.97
2022-12-11T07:04:31.396Z,16.93
2022-12-11T07:06:58.082Z,12.97
2022-12-11T07:09:24.874Z,16.27
2022-12-11T07:11:52.696Z,18.40
2022-12-11T07:14:20.332Z,14.20
2022-12-11T07:16:46.976Z,18.97
2022-12-11T07:19:13.600Z,17.33
2022-12-11T07:21:40.239Z,16.60
2022-12-11T07:24:07.695Z,19.70
2022-12-11T07:26:34.598Z,15.37
2022-12-11T07:29:01.490Z,20.30
2022-12-11T07:31:29.754Z,18.37
2022-12-11T07:33:58.642Z,17.10
2022-12-11T07:36:26.493Z,15.70
2022-12-11T07:38:53.392Z,17.60
2022-12-11T07:41:20.132Z,14.80
2022-12-11T07:43:47.579Z,19.60
2022-12-11T07:46:20.429Z,15.60
2022-12-11T07:48:48.173Z,14.70
2022-12-11T07:51:27.497Z,17.83
2022-12-11T07:54:18.168Z,23.20
2022-12-11T07:56:51.199Z,19.30
2022-12-11T07:59:20.960Z,16.27
2022-12-11T08:01:47.666Z,17.80
2022-12-11T08:04:15.686Z,14.77
2022-12-11T08:06:43.159Z,25.07
2022-12-11T08:09:17.494Z,18.47
2022-12-11T08:11:51.690Z,24.07
2022-12-11T08:14:19.538Z,18.30
2022-12-11T08:16:46.350Z,15.23
2022-12-11T08:19:13.816Z,18.93
2022-12-11T08:21:40.893Z,17.97
2022-12-11T08:24:08.955Z,18.50
2022-12-11T08:26:35.985Z,15.03
2022-12-11T08:29:02.790Z,19.50
2022-12-11T08:31:29.985Z,22.03
2022-12-11T08:33:57.320Z,18.73
2022-12-11T08:36:24.975Z,18.67
2022-12-11T08:38:52.364Z,19.47
2022-12-11T08:41:28.180Z,18.80
2022-12-11T08:43:56.396Z,21.73
2022-12-11T08:46:25.499Z,20.17
2022-12-11T08:48:52.677Z,20.03
2022-12-11T08:51:22.718Z,22.67
2022-12-11T08:53:51.072Z,18.37
2022-12-11T08:56:20.220Z,19.30
2022-12-11T08:58:47.700Z,16.87
2022-12-11T09:01:21.484Z,20.20
2022-12-11T09:03:49.070Z,17.33
2022-12-11T09:06:18.461Z,18.00
2022-12-11T09:08:51.979Z,17.30
2022-12-11T09:11:23.389Z,18.77
2022-12-11T09:13:50.218Z,20.47
2022-12-11T09:16:19.035Z,16.73
2022-12-11T09:18:47.483Z,18.53
2022-12-11T09:21:17.169Z,15.80
2022-12-11T09:23:43.968Z,16.90
2022-12-11T09:26:15.013Z,17.53
2022-12-11T09:28:46.286Z,20.10
2022-12-11T09:31:23.583Z,23.23
2022-12-11T09:33:52.029Z,18.23
2022-12-11T09:36:19.081Z,14.87
2022-12-11T09:38:46.239Z,15.73
2022-12-11T09:41:22.082Z,17.73
2022-12-11T09:44:19.982Z,16.50
2022-12-11T09:46:47.748Z,14.00
2022-12-11T09:49:27.340Z,16.00
2022-12-11T09:52:18.823Z,18.33
2022-12-11T09:54:57.415Z,15.07
2022-12-11T09:57:30.661Z,15.60
2022-12-11T10:00:30.292Z,17.53
2022-12-11T10:03:11.064Z,13.93
2022-12-11T10:05:58.386Z,17.03
2022-12-11T10:08:47.714Z,19.53
2022-12-11T10:11:33.519Z,18.53
2022-12-11T10:14:19.036Z,15.40
2022-12-11T10:16:48.703Z,13.07
2022-12-11T10:19:31.416Z,15.70
2022-12-11T10:22:00.915Z,16.50
2022-12-11T10:27:38.167Z,17.33
2022-12-11T10:30:28.404Z,13.80
2022-12-11T10:33:20.734Z,15.83
2022-12-11T10:35:54.887Z,14.77
2022-12-11T10:38:27.575Z,13.03
2022-12-11T10:41:46.945Z,13.53
2022-12-11T10:44:25.649Z,14.33
2022-12-11T10:47:12.556Z,14.87
2022-12-11T10:49:43.853Z,16.47
2022-12-11T10:52:19.683Z,13.80
2022-12-11T10:54:49.120Z,15.43
2022-12-11T10:57:16.186Z,14.57
2022-12-11T10:59:48.751Z,13.83
2022-12-11T11:02:40.135Z,18.10
2022-12-11T11:05:17.621Z,16.33
2022-12-11T11:07:44.315Z,15.03
2022-12-11T11:10:10.991Z,14.20
2022-12-11T11:12:41.047Z,12.77
2022-12-11T11:15:17.649Z,15.23
2022-12-11T11:17:55.826Z,15.47
2022-12-11T11:20:25.865Z,18.70
2022-12-11T11:23:00.289Z,13.83
2022-12-11T11:25:29.738Z,18.10
2022-12-11T11:27:59.869Z,16.43
2022-12-11T11:30:33.130Z,13.97
2022-12-11T11:33:20.945Z,17.47
2022-12-11T11:35:54.746Z,13.83
2022-12-11T11:38:24.932Z,14.73
2022-12-11T11:41:05.603Z,18.43
2022-12-11T11:43:52.912Z,13.80
2022-12-11T11:46:38.343Z,18.27
2022-12-11T11:49:08.037Z,16.33
2022-12-11T11:51:41.581Z,21.73
2022-12-11T11:54:35.504Z,15.70
2022-12-11T11:57:13.710Z,19.97
2022-12-11T11:59:47.153Z,13.40
2022-12-11T12:02:16.602Z,11.50
2022-12-11T12:04:44.925Z,14.17
2022-12-11T12:07:27.845Z,13.27
2022-12-11T12:10:00.452Z,12.70
2022-12-11T12:12:41.428Z,13.33
2022-12-11T12:15:26.997Z,16.50
2022-12-11T12:18:28.676Z,22.13
2022-12-11T12:21:26.208Z,13.73
2022-12-11T12:24:28.731Z,16.67
2022-12-11T12:27:01.939Z,16.77
2022-12-11T12:29:31.876Z,26.00
2022-12-11T12:32:16.200Z,17.20
2022-12-11T12:35:19.444Z,18.90
2022-12-11T12:38:13.927Z,15.63
2022-12-11T12:41:02.472Z,11.60
2022-12-11T12:43:42.429Z,16.73
2022-12-11T12:46:28.859Z,16.40
2022-12-11T12:48:58.596Z,15.83
2022-12-11T12:51:26.216Z,18.37
2022-12-11T12:54:03.897Z,12.53
2022-12-11T12:56:33.926Z,12.50
2022-12-11T12:59:00.575Z,13.03
2022-12-11T13:01:29.933Z,13.47
2022-12-11T13:03:59.811Z,12.97
2022-12-11T13:06:44.103Z,13.77
2022-12-11T13:09:28.721Z,16.17
2022-12-11T13:11:57.975Z,14.73
2022-12-11T13:14:33.638Z,15.13
2022-12-11T13:17:36.604Z,15.80
2022-12-11T13:20:18.449Z,17.00
2022-12-11T13:23:07.999Z,15.60
2022-12-11T13:25:49.458Z,18.87
2022-12-11T13:28:48.161Z,16.33
2022-12-11T13:31:14.744Z,21.10
2022-12-11T13:33:50.740Z,15.13
2022-12-11T13:36:24.363Z,17.07
2022-12-11T13:39:05.324Z,15.70
2022-12-11T13:41:36.501Z,13.17
2022-12-11T13:44:04.985Z,19.43
2022-12-11T13:46:36.795Z,18.33
2022-12-11T13:49:06.879Z,14.90
2022-12-11T13:51:36.092Z,19.03
2022-12-11T13:54:20.814Z,16.10
2022-12-11T13:56:55.509Z,28.43
2022-12-11T13:59:29.404Z,15.03
2022-12-11T14:01:59.990Z,22.10
2022-12-11T14:04:28.270Z,17.20
2022-12-11T14:06:56.669Z,15.97
2022-12-11T14:09:26.214Z,16.13
2022-12-11T14:11:56.915Z,16.80
2022-12-11T14:14:38.580Z,14.57
2022-12-11T14:17:05.312Z,13.70
2022-12-11T14:19:31.981Z,14.10
2022-12-11T14:22:02.016Z,16.07
2022-12-11T14:24:30.190Z,16.60
2022-12-11T14:26:57.968Z,13.90
2022-12-11T14:29:31.145Z,14.37
2022-12-11T14:32:05.448Z,15.47
2022-12-11T14:34:39.205Z,12.20
2022-12-11T14:37:07.654Z,16.70
2022-12-11T14:39:44.604Z,17.07
2022-12-11T14:42:15.871Z,14.07
2022-12-11T14:44:58.500Z,12.87
2022-12-11T14:47:29.047Z,15.27
2022-12-11T14:50:03.798Z,17.43
2022-12-11T14:52:38.431Z,14.57
2022-12-11T14:55:25.170Z,21.03
2022-12-11T14:57:56.200Z,16.90
2022-12-11T15:00:30.691Z,17.50
2022-12-11T15:03:17.357Z,19.17
2022-12-11T15:05:53.013Z,15.57
2022-12-11T15:08:28.933Z,17.63
2022-12-11T15:11:14.824Z,16.13
2022-12-11T15:13:53.575Z,15.57
2022-12-11T15:16:22.754Z,13.10
2022-12-11T15:18:52.203Z,22.40
2022-12-11T15:21:27.419Z,15.77
2022-12-11T15:23:59.988Z,13.80
2022-12-11T15:26:46.825Z,20.03
2022-12-11T15:29:33.731Z,18.13
2022-12-11T15:32:08.065Z,21.03
2022-12-11T15:34:55.788Z,15.43
2022-12-11T15:37:25.807Z,18.00
2022-12-11T15:39:54.084Z,16.30
2022-12-11T15:42:36.967Z,17.30
2022-12-11T15:45:07.077Z,11.40
2022-12-11T15:47:33.860Z,17.10
2022-12-11T15:50:07.478Z,20.77
2022-12-11T15:52:34.547Z,14.70
2022-12-11T15:55:01.226Z,16.43
2022-12-11T15:57:27.900Z,14.57
2022-12-11T15:59:55.444Z,19.87
2022-12-11T16:02:24.145Z,19.37
2022-12-11T16:04:50.762Z,15.43
2022-12-11T16:07:20.699Z,16.70
2022-12-11T16:09:47.683Z,30.87
2022-12-11T16:12:15.245Z,20.17
2022-12-11T16:14:43.179Z,24.43
2022-12-11T16:17:11.119Z,17.50
2022-12-11T16:19:37.743Z,21.50
2022-12-11T16:22:05.489Z,20.10
2022-12-11T16:24:33.173Z,14.93
2022-12-11T16:26:59.767Z,19.80
2022-12-11T16:29:26.484Z,19.70
2022-12-11T16:31:53.106Z,16.73
2022-12-11T16:34:24.126Z,19.47
2022-12-11T16:36:50.785Z,17.30
2022-12-11T16:39:17.557Z,18.93
2022-12-11T16:41:44.139Z,27.73
2022-12-11T16:44:10.725Z,23.37
2022-12-11T16:46:37.786Z,18.97
2022-12-11T16:49:04.854Z,23.73
2022-12-11T16:51:31.495Z,24.23
2022-12-11T16:53:58.177Z,22.87
2022-12-11T16:56:25.387Z,22.13
2022-12-11T16:58:52.045Z,22.70
2022-12-11T17:01:19.011Z,19.97
2022-12-11T17:03:45.721Z,19.63
2022-12-11T17:06:15.100Z,17.70
2022-12-11T17:08:42.789Z,21.60
2022-12-11T17:11:12.589Z,18.73
2022-12-11T17:13:39.851Z,23.47
2022-12-11T17:16:08.526Z,22.30
2022-12-11T17:18:35.228Z,20.33
2022-12-11T17:21:13.683Z,18.23
2022-12-11T17:23:40.988Z,23.60
2022-12-11T17:26:10.554Z,23.90
2022-12-11T17:28:38.031Z,23.13
2022-12-11T17:31:07.074Z,19.67
2022-12-11T17:33:33.841Z,23.80
2022-12-11T17:36:05.583Z,27.73
2022-12-11T17:38:32.647Z,21.73
2022-12-11T17:40:59.277Z,19.93
2022-12-11T17:43:26.377Z,21.00
2022-12-11T17:45:53.215Z,24.50
2022-12-11T17:48:22.387Z,22.47
2022-12-11T17:50:50.409Z,22.93
2022-12-11T17:53:18.899Z,22.03
2022-12-11T17:55:46.634Z,21.90
2022-12-11T17:58:16.684Z,19.60
2022-12-11T18:00:45.810Z,23.53
2022-12-11T18:03:12.705Z,25.73
2022-12-11T18:05:46.910Z,22.60
2022-12-11T18:08:19.507Z,27.83
2022-12-11T18:10:46.309Z,49.63
2022-12-11T18:13:13.530Z,31.17
2022-12-11T18:15:40.415Z,47.27
2022-12-11T18:18:07.919Z,30.07
2022-12-11T18:20:35.421Z,25.03
2022-12-11T18:23:02.296Z,30.63
2022-12-11T18:25:29.111Z,30.07
2022-12-11T18:27:56.026Z,26.43
2022-12-11T18:30:24.222Z,27.57
2022-12-11T18:32:51.156Z,27.63
2022-12-11T18:35:18.411Z,23.40
2022-12-11T18:37:45.374Z,29.73
2022-12-11T18:40:12.409Z,25.57
2022-12-11T18:42:39.050Z,26.37
2022-12-11T18:45:06.913Z,26.97
2022-12-11T18:47:33.716Z,27.23
2022-12-11T18:50:07.216Z,32.23
2022-12-11T18:52:34.742Z,26.80
2022-12-11T18:55:01.505Z,26.30
2022-12-11T18:57:28.139Z,32.57
2022-12-11T18:59:55.361Z,30.67
2022-12-11T19:02:22.788Z,27.40
2022-12-11T19:04:49.549Z,27.80
2022-12-11T19:07:16.385Z,31.40
2022-12-11T19:09:47.857Z,39.10
2022-12-11T19:12:15.339Z,32.17
2022-12-11T19:14:42.009Z,29.30
2022-12-11T19:17:08.682Z,44.50
2022-12-11T19:19:35.941Z,36.80
2022-12-11T19:22:02.826Z,30.53
2022-12-11T19:24:29.902Z,33.23
2022-12-11T19:26:56.896Z,34.97
2022-12-11T19:29:27.300Z,39.10
2022-12-11T19:31:55.568Z,35.97
2022-12-11T19:34:22.760Z,32.03
2022-12-11T19:36:49.902Z,38.13
2022-12-11T19:39:16.685Z,31.13
2022-12-11T19:41:43.772Z,35.40
2022-12-11T19:44:10.782Z,30.53
2022-12-11T19:46:37.828Z,31.90
2022-12-11T19:49:05.212Z,31.00
2022-12-11T19:51:38.555Z,33.10
2022-12-11T19:54:07.354Z,25.87
2022-12-11T19:56:35.313Z,27.80
2022-12-11T19:59:03.911Z,27.63
2022-12-11T20:01:34.069Z,30.67
2022-12-11T20:04:03.810Z,33.80
2022-12-11T20:06:32.670Z,28.97
2022-12-11T20:09:00.036Z,33.57
2022-12-11T20:11:27.164Z,25.03
2022-12-11T20:13:55.585Z,31.20
2022-12-11T20:16:39.531Z,35.63
2022-12-11T20:19:09.752Z,30.03
2022-12-11T20:21:36.442Z,30.17
2022-12-11T20:24:03.269Z,31.93
2022-12-11T20:26:32.413Z,29.57
2022-12-11T20:28:59.228Z,29.17
2022-12-11T20:31:26.327Z,28.90
2022-12-11T20:33:55.632Z,22.57
2022-12-11T20:36:23.474Z,33.73
2022-12-11T20:38:51.213Z,29.67
2022-12-11T20:41:21.233Z,34.00
2022-12-11T20:43:53.204Z,30.73
2022-12-11T20:46:21.912Z,40.43
2022-12-11T20:48:49.043Z,30.63
2022-12-11T20:51:25.218Z,30.17
2022-12-11T20:53:58.199Z,31.27
2022-12-11T20:56:29.966Z,30.77
2022-12-11T20:58:57.896Z,25.63
2022-12-11T21:01:26.564Z,31.53
2022-12-11T21:03:53.673Z,23.50
2022-12-11T21:06:31.516Z,27.30
2022-12-11T21:09:05.627Z,30.03
2022-12-11T21:11:32.479Z,26.73
2022-12-11T21:13:59.193Z,30.37
2022-12-11T21:16:26.289Z,28.73
2022-12-11T21:18:54.442Z,23.97
2022-12-11T21:21:21.111Z,25.43
2022-12-11T21:23:48.247Z,24.13
2022-12-11T21:26:15.435Z,24.50
2022-12-11T21:28:42.238Z,26.73
2022-12-11T21:31:12.825Z,28.70
2022-12-11T21:33:39.709Z,24.63
2022-12-11T21:36:07.312Z,29.90
2022-12-11T21:38:34.266Z,30.13
2022-12-11T21:41:23.278Z,30.80
2022-12-11T21:44:56.682Z,28.03
2022-12-11T21:46:38.752Z,25.03
2022-12-11T21:49:05.693Z,29.53
2022-12-11T21:51:40.249Z,28.27
2022-12-11T21:54:13.490Z,30.23
2022-12-11T21:56:41.121Z,34.13
2022-12-11T21:59:08.701Z,29.03
2022-12-11T22:01:38.450Z,29.83
2022-12-11T22:04:05.455Z,29.47
2022-12-11T22:06:32.385Z,33.70
2022-12-11T22:08:59.049Z,27.60
2022-12-11T22:11:28.861Z,23.17
2022-12-11T22:13:56.042Z,28.93
2022-12-11T22:16:23.132Z,27.53
2022-12-11T22:18:49.786Z,31.27
2022-12-11T22:21:17.236Z,30.57
2022-12-11T22:23:44.601Z,33.70
2022-12-11T22:26:20.052Z,23.33
2022-12-11T22:28:47.123Z,27.80
2022-12-11T22:31:16.675Z,35.20
2022-12-11T22:33:43.679Z,31.27
2022-12-11T22:36:11.541Z,31.80
2022-12-11T22:38:38.219Z,30.10
2022-12-11T22:41:32.256Z,24.37
2022-12-11T22:43:59.897Z,24.50
2022-12-11T22:46:29.238Z,27.23
2022-12-11T22:48:57.055Z,32.10
2022-12-11T22:51:23.653Z,29.30
2022-12-11T22:53:50.766Z,29.07
2022-12-11T22:56:17.771Z,26.63
2022-12-11T22:58:44.418Z,22.93
2022-12-11T23:01:19.201Z,28.23
2022-12-11T23:03:46.171Z,28.97
2022-12-11T23:06:15.806Z,28.87
2022-12-11T23:08:42.737Z,26.03
2022-12-11T23:11:21.539Z,31.27
2022-12-11T23:13:48.344Z,29.50
2022-12-11T23:16:15.414Z,26.00
2022-12-11T23:18:42.180Z,26.40
2022-12-11T23:21:09.668Z,30.27
2022-12-11T23:23:37.282Z,30.83
2022-12-11T23:26:05.599Z,32.87
2022-12-11T23:28:32.247Z,24.10
2022-12-11T23:30:59.012Z,33.90
2022-12-11T23:33:25.724Z,32.13
2022-12-11T23:35:52.372Z,36.07
2022-12-11T23:38:18.978Z,32.67
2022-12-11T23:40:45.670Z,30.43
2022-12-11T23:43:12.333Z,28.37
2022-12-11T23:45:38.943Z,31.83
2022-12-11T23:48:05.546Z,30.90
2022-12-11T23:50:32.918Z,34.83
2022-12-11T23:52:59.557Z,31.57
2022-12-11T23:55:27.434Z,27.17
2022-12-11T23:57:54.109Z,25.97
